Time;durP1;ratioP1;P1;durP2;ratioP2;P2;SDS_P1;SDS_P2;PMS_P1;PMS_P2;Temp;Humidity;BMP_temperature;BMP_pressure;BME280_temperature;BME280_humidity;BME280_pressure;Samples;Min_cycle;Max_cycle;Signal;HPM_P1;HPM_P2
2023/02/28 00:00:36;;;;;;;26.70;12.63;;;28.50;82.60;;;;;;5083496;28;20035;-54
2023/02/28 00:03:03;;;;;;;15.88;10.68;;;28.50;82.50;;;;;;5083750;28;20036;-52
2023/02/28 00:05:30;;;;;;;18.27;10.73;;;28.50;82.50;;;;;;5083551;28;20063;-56
2023/02/28 00:07:57;;;;;;;20.50;10.88;;;28.50;82.50;;;;;;5084355;28;20025;-55
2023/02/28 00:10:29;;;;;;;24.17;10.73;;;28.40;82.40;;;;;;5087571;28;20021;-54
2023/02/28 00:12:58;;;;;;;20.67;10.23;;;28.40;82.30;;;;;;5079615;28;20043;-56
2023/02/28 00:15:25;;;;;;;20.95;10.77;;;28.40;82.20;;;;;;5086944;28;20017;-57
2023/02/28 00:17:52;;;;;;;23.52;10.40;;;28.40;81.90;;;;;;5087404;28;20047;-52
2023/02/28 00:20:19;;;;;;;18.80;10.00;;;28.40;82.00;;;;;;5087483;28;20039;-63
2023/02/28 00:22:48;;;;;;;18.38;9.90;;;28.40;81.80;;;;;;5087493;28;20028;-55
2023/02/28 00:25:18;;;;;;;21.75;10.20;;;28.30;81.60;;;;;;5087456;28;20035;-54
2023/02/28 00:27:45;;;;;;;17.33;10.32;;;28.30;81.50;;;;;;5087436;28;20039;-56
2023/02/28 00:30:18;;;;;;;20.75;9.90;;;28.30;81.50;;;;;;5087125;28;20035;-56
2023/02/28 00:32:45;;;;;;;19.48;9.88;;;28.30;81.30;;;;;;5087243;28;20021;-57
2023/02/28 00:35:15;;;;;;;21.33;10.13;;;28.30;81.00;;;;;;5087202;28;20308;-58
2023/02/28 00:37:42;;;;;;;29.52;10.88;;;28.30;80.80;;;;;;5086973;28;20013;-55
2023/02/28 00:40:11;;;;;;;24.35;10.90;;;28.30;81.00;;;;;;5087073;28;20201;-53
2023/02/28 00:42:37;;;;;;;28.00;10.93;;;28.20;80.30;;;;;;5086967;28;20088;-55
2023/02/28 00:45:08;;;;;;;20.80;10.35;;;28.20;80.10;;;;;;5086893;28;20020;-57
2023/02/28 00:47:36;;;;;;;18.42;9.73;;;28.20;80.10;;;;;;5053393;28;20043;-55
2023/02/28 00:50:04;;;;;;;17.65;9.52;;;28.20;79.90;;;;;;5086600;28;20043;-54
2023/02/28 00:52:31;;;;;;;16.90;10.07;;;28.20;79.80;;;;;;5086567;28;20043;-58
2023/02/28 00:54:57;;;;;;;17.02;9.80;;;28.20;79.80;;;;;;5086832;28;20033;-55
2023/02/28 00:57:24;;;;;;;16.17;9.07;;;28.20;79.60;;;;;;5086744;28;20012;-56
2023/02/28 00:59:51;;;;;;;22.73;9.73;;;28.20;79.60;;;;;;5087171;28;20034;-55
2023/02/28 01:02:19;;;;;;;30.63;10.73;;;28.20;79.50;;;;;;5086602;28;20194;-54
2023/02/28 01:04:47;;;;;;;27.70;10.50;;;28.10;79.40;;;;;;5086395;28;20020;-56
2023/02/28 01:07:15;;;;;;;23.65;9.75;;;28.10;79.30;;;;;;5086444;28;20354;-53
2023/02/28 01:09:42;;;;;;;94.40;14.05;;;28.10;79.00;;;;;;5086909;28;20095;-55
2023/02/28 01:12:09;;;;;;;42.85;12.00;;;28.00;78.60;;;;;;5086503;28;20212;-55
2023/02/28 01:14:40;;;;;;;29.80;11.10;;;28.00;78.60;;;;;;5086836;28;20447;-56
2023/02/28 01:17:07;;;;;;;23.58;10.25;;;28.00;78.70;;;;;;5083804;28;20096;-59
2023/02/28 01:19:35;;;;;;;23.02;9.73;;;27.80;78.30;;;;;;5058566;28;20048;-59
2023/02/28 01:22:03;;;;;;;21.73;9.93;;;27.90;78.00;;;;;;5066812;28;20096;-59
2023/02/28 01:24:30;;;;;;;17.95;9.35;;;27.90;77.90;;;;;;5076444;28;20044;-59
2023/02/28 01:26:57;;;;;;;18.05;9.65;;;27.90;77.70;;;;;;5074979;28;20029;-58
2023/02/28 01:29:23;;;;;;;19.67;9.50;;;27.80;77.50;;;;;;5072644;28;20054;-58
2023/02/28 01:31:50;;;;;;;17.08;9.05;;;27.90;77.50;;;;;;5085089;28;20228;-61
2023/02/28 01:34:21;;;;;;;18.48;9.43;;;27.90;77.40;;;;;;5077173;28;20013;-61
2023/02/28 01:36:48;;;;;;;28.17;17.35;;;27.90;77.40;;;;;;5081272;28;20037;-57
2023/02/28 01:39:14;;;;;;;35.45;27.38;;;27.80;77.10;;;;;;5078287;28;20029;-62
2023/02/28 01:41:45;;;;;;;35.10;24.52;;;27.80;77.10;;;;;;5068808;28;20311;-63
2023/02/28 01:44:48;;;;;;;24.45;19.02;;;27.80;77.10;;;;;;5077318;28;20332;-59
2023/02/28 01:47:15;;;;;;;27.20;15.63;;;27.80;76.90;;;;;;5074979;28;20332;-58
2023/02/28 01:49:42;;;;;;;20.70;13.50;;;27.80;76.70;;;;;;5065627;28;20047;-58
2023/02/28 01:52:17;;;;;;;24.95;13.32;;;27.80;76.60;;;;;;5068407;28;20078;-57
2023/02/28 01:54:52;;;;;;;24.45;12.70;;;27.80;76.60;;;;;;5077015;28;20032;-56
2023/02/28 01:57:25;;;;;;;42.67;14.20;;;27.80;76.70;;;;;;5073208;28;20028;-58
2023/02/28 01:59:59;;;;;;;27.52;13.10;;;27.80;76.90;;;;;;5056880;28;20072;-60
2023/02/28 02:02:27;;;;;;;22.50;11.57;;;27.80;76.90;;;;;;5070589;28;20068;-59
2023/02/28 02:04:57;;;;;;;17.77;12.00;;;27.70;76.60;;;;;;5084002;28;20044;-60
2023/02/28 02:07:26;;;;;;;22.73;11.40;;;27.70;76.40;;;;;;5076158;28;20088;-60
2023/02/28 02:10:08;;;;;;;20.50;10.63;;;27.70;76.50;;;;;;5077989;28;20029;-60
2023/02/28 02:13:11;;;;;;;28.85;11.02;;;27.70;76.30;;;;;;5071469;28;20036;-58
2023/02/28 02:15:59;;;;;;;18.08;10.57;;;27.70;76.10;;;;;;5074439;28;20392;-58
2023/02/28 02:18:57;;;;;;;16.40;10.32;;;27.70;76.00;;;;;;5065479;28;20031;-57
2023/02/28 02:22:15;;;;;;;12.52;10.05;;;27.70;75.80;;;;;;5066549;28;20065;-58
2023/02/28 02:25:12;;;;;;;15.75;10.10;;;27.70;75.60;;;;;;5043674;28;20032;-55
2023/02/28 02:28:15;;;;;;;14.50;10.35;;;27.80;75.70;;;;;;5083434;28;20033;-59
2023/02/28 02:30:59;;;;;;;12.50;9.48;;;27.80;75.60;;;;;;5075961;28;20075;-58
2023/02/28 02:34:19;;;;;;;12.70;9.80;;;27.80;75.10;;;;;;5065134;28;20296;-60
2023/02/28 02:37:02;;;;;;;14.43;9.88;;;27.80;75.40;;;;;;4973510;28;20031;-54
2023/02/28 02:40:00;;;;;;;17.02;10.07;;;27.80;75.10;;;;;;5057161;28;20047;-59
2023/02/28 02:42:51;;;;;;;12.02;9.80;;;27.80;75.30;;;;;;5076076;28;20037;-59
2023/02/28 02:45:38;;;;;;;15.10;9.52;;;27.80;75.20;;;;;;5041919;28;20033;-60
2023/02/28 02:48:09;;;;;;;18.30;10.13;;;27.80;75.50;;;;;;5066939;28;20036;-56
2023/02/28 02:50:42;;;;;;;17.80;9.95;;;27.80;75.50;;;;;;5076226;28;20078;-58
2023/02/28 02:53:10;;;;;;;18.38;9.80;;;27.80;75.30;;;;;;5071670;28;20020;-58
2023/02/28 02:55:41;;;;;;;14.90;9.40;;;27.80;75.30;;;;;;5074360;28;20036;-58
2023/02/28 02:58:16;;;;;;;17.45;10.45;;;27.80;75.40;;;;;;5075456;28;20033;-60
2023/02/28 03:00:52;;;;;;;12.63;9.43;;;27.80;75.70;;;;;;5065100;28;20036;-59
2023/02/28 03:03:28;;;;;;;19.88;10.30;;;27.80;75.60;;;;;;5068870;28;20095;-59
2023/02/28 03:05:57;;;;;;;12.45;9.70;;;27.70;75.80;;;;;;5072231;28;20040;-60
2023/02/28 03:08:24;;;;;;;13.77;10.02;;;27.80;75.40;;;;;;5069341;28;20029;-59
2023/02/28 03:10:56;;;;;;;15.85;9.77;;;27.80;75.40;;;;;;5075546;28;20130;-59
2023/02/28 03:13:42;;;;;;;13.88;9.77;;;27.80;75.10;;;;;;5072630;28;20021;-58
2023/02/28 03:16:25;;;;;;;13.45;9.27;;;27.80;75.10;;;;;;5071190;28;20032;-58
2023/02/28 03:19:13;;;;;;;13.65;9.73;;;27.80;74.90;;;;;;5075998;28;20230;-58
2023/02/28 03:22:04;;;;;;;14.38;10.02;;;27.80;74.90;;;;;;5066145;28;20095;-58
2023/02/28 03:24:38;;;;;;;15.38;9.82;;;27.80;74.90;;;;;;5075124;28;20104;-58
2023/02/28 03:27:22;;;;;;;16.10;9.95;;;27.80;75.10;;;;;;5074422;28;20059;-59
2023/02/28 03:30:04;;;;;;;13.00;9.68;;;27.80;75.20;;;;;;5081984;28;20099;-60
2023/02/28 03:32:55;;;;;;;14.75;9.57;;;27.80;75.30;;;;;;5060587;28;20070;-58
2023/02/28 03:35:33;;;;;;;13.80;9.38;;;27.80;75.40;;;;;;5078913;28;20084;-58
2023/02/28 03:38:14;;;;;;;15.48;9.88;;;27.70;75.50;;;;;;5082356;28;20028;-54
2023/02/28 03:40:47;;;;;;;12.15;9.75;;;27.80;75.60;;;;;;5082618;28;20255;-55
2023/02/28 03:43:22;;;;;;;12.88;9.07;;;27.70;75.60;;;;;;5082305;28;20031;-56
2023/02/28 03:45:52;;;;;;;11.45;10.35;;;27.70;75.50;;;;;;5078550;28;20103;-57
2023/02/28 03:48:32;;;;;;;14.60;9.75;;;27.70;75.60;;;;;;5082376;28;20100;-55
2023/02/28 03:51:02;;;;;;;11.88;9.68;;;27.70;75.70;;;;;;5087199;28;20036;-58
2023/02/28 03:53:51;;;;;;;10.80;9.70;;;27.70;75.60;;;;;;5071458;28;20021;-59
2023/02/28 03:56:21;;;;;;;12.90;9.63;;;27.70;75.40;;;;;;5086455;28;20099;-59
2023/02/28 03:59:17;;;;;;;11.93;9.65;;;27.70;75.60;;;;;;5083146;28;20032;-58
2023/02/28 04:01:47;;;;;;;14.23;10.18;;;27.70;76.10;;;;;;5079913;28;20067;-49
2023/02/28 04:04:15;;;;;;;15.50;10.32;;;27.70;76.10;;;;;;5084603;28;20027;-56
2023/02/28 04:06:45;;;;;;;11.73;9.70;;;27.70;76.00;;;;;;5086674;28;20028;-58
2023/02/28 04:09:14;;;;;;;11.07;9.98;;;27.70;75.90;;;;;;5082968;28;20028;-60
2023/02/28 04:11:52;;;;;;;11.73;10.45;;;27.70;75.90;;;;;;5082526;28;20050;-58
2023/02/28 04:14:19;;;;;;;13.05;10.20;;;27.70;76.00;;;;;;5082429;28;20047;-62
2023/02/28 04:16:46;;;;;;;10.63;9.63;;;27.60;75.90;;;;;;5083896;28;20208;-58
2023/02/28 04:19:14;;;;;;;13.25;9.90;;;27.70;75.90;;;;;;5082352;28;20032;-54
2023/02/28 04:21:43;;;;;;;11.27;10.15;;;27.60;75.90;;;;;;5071781;28;20051;-58
2023/02/28 04:24:16;;;;;;;12.50;11.20;;;27.60;75.80;;;;;;5068705;28;20351;-59
2023/02/28 04:26:45;;;;;;;11.63;10.52;;;27.60;75.90;;;;;;5073966;28;20025;-55
2023/02/28 04:29:16;;;;;;;13.30;10.40;;;27.60;75.60;;;;;;5080076;28;20024;-56
2023/02/28 04:31:42;;;;;;;13.52;10.70;;;27.60;75.40;;;;;;5074425;28;20036;-55
2023/02/28 04:34:09;;;;;;;11.30;10.10;;;27.60;75.50;;;;;;5067829;28;20021;-56
2023/02/28 04:36:35;;;;;;;11.02;9.98;;;27.60;75.40;;;;;;5064457;28;20025;-60
2023/02/28 04:39:03;;;;;;;12.07;10.80;;;27.60;75.60;;;;;;5062959;28;20090;-57
2023/02/28 04:41:30;;;;;;;11.32;10.13;;;27.60;75.60;;;;;;5062905;28;20083;-58
2023/02/28 04:43:58;;;;;;;11.32;10.25;;;27.60;75.70;;;;;;5067698;28;20183;-54
2023/02/28 04:46:27;;;;;;;12.75;10.07;;;27.60;75.80;;;;;;5082543;28;20051;-58
2023/02/28 04:48:54;;;;;;;12.85;10.00;;;27.60;75.70;;;;;;5078463;28;20020;-61
2023/02/28 04:51:21;;;;;;;12.05;10.05;;;27.50;75.60;;;;;;5066524;28;20036;-58
2023/02/28 04:53:48;;;;;;;13.45;10.20;;;27.50;75.70;;;;;;5065677;28;20058;-60
2023/02/28 04:56:17;;;;;;;10.85;9.80;;;27.50;76.00;;;;;;5083650;28;20307;-58
2023/02/28 04:58:44;;;;;;;12.20;10.20;;;27.50;76.10;;;;;;5072827;28;20059;-59
2023/02/28 05:01:20;;;;;;;11.82;9.75;;;27.40;76.20;;;;;;5079901;28;20265;-59
2023/02/28 05:03:48;;;;;;;11.15;10.00;;;27.40;76.30;;;;;;5066793;28;20040;-60
2023/02/28 05:06:15;;;;;;;12.77;10.63;;;27.40;76.10;;;;;;5066792;28;20240;-60
2023/02/28 05:08:42;;;;;;;14.02;10.35;;;27.40;75.70;;;;;;5067923;28;20032;-58
2023/02/28 05:11:17;;;;;;;12.02;9.95;;;27.40;75.70;;;;;;5073332;28;20041;-55
2023/02/28 05:13:45;;;;;;;11.27;10.15;;;27.40;75.80;;;;;;5086740;28;20028;-58
2023/02/28 05:16:11;;;;;;;11.40;10.25;;;27.40;75.90;;;;;;5068354;28;20219;-59
2023/02/28 05:18:39;;;;;;;13.27;10.05;;;27.40;76.00;;;;;;5066572;28;20020;-60
2023/02/28 05:21:06;;;;;;;10.77;9.68;;;27.40;76.00;;;;;;5079787;28;20359;-58
2023/02/28 05:23:33;;;;;;;10.82;9.77;;;27.40;75.90;;;;;;5086716;28;20031;-57
2023/02/28 05:25:59;;;;;;;10.88;9.77;;;27.40;75.80;;;;;;5086206;28;20048;-61
2023/02/28 05:28:26;;;;;;;14.13;10.57;;;27.40;75.70;;;;;;5086459;28;20021;-60
2023/02/28 05:30:53;;;;;;;11.55;10.50;;;27.40;75.60;;;;;;5086226;28;20043;-63
2023/02/28 05:33:19;;;;;;;11.35;10.00;;;27.40;75.80;;;;;;5092416;28;20055;-58
2023/02/28 05:35:46;;;;;;;10.43;9.40;;;27.40;75.80;;;;;;5090839;28;20043;-61
2023/02/28 05:38:12;;;;;;;10.93;9.85;;;27.40;75.70;;;;;;5086172;28;20084;-61
2023/02/28 05:40:40;;;;;;;12.60;10.73;;;27.40;75.30;;;;;;5085821;28;20029;-58
2023/02/28 05:43:09;;;;;;;11.23;10.13;;;27.40;75.20;;;;;;5085358;28;20025;-61
2023/02/28 05:45:36;;;;;;;11.55;10.32;;;27.40;75.20;;;;;;5086136;28;20025;-61
2023/02/28 05:48:03;;;;;;;11.30;10.10;;;27.40;75.20;;;;;;5085796;28;20028;-61
2023/02/28 05:50:29;;;;;;;10.98;10.02;;;27.40;75.30;;;;;;5087285;28;20025;-59
2023/02/28 05:52:56;;;;;;;11.27;10.27;;;27.40;75.10;;;;;;5084794;28;20024;-60
2023/02/28 05:55:22;;;;;;;11.98;10.23;;;27.40;75.00;;;;;;5083942;28;20021;-62
2023/02/28 05:57:49;;;;;;;10.82;9.73;;;27.40;74.90;;;;;;5085762;28;20040;-63
2023/02/28 06:00:17;;;;;;;12.30;10.23;;;27.40;74.90;;;;;;5085547;28;20051;-61
2023/02/28 06:02:44;;;;;;;11.85;10.65;;;27.40;74.90;;;;;;5084849;28;20239;-59
2023/02/28 06:05:15;;;;;;;11.60;10.60;;;27.40;74.80;;;;;;5085201;28;20320;-60
2023/02/28 06:07:42;;;;;;;12.50;10.45;;;27.40;74.90;;;;;;5085235;28;20028;-59
2023/02/28 06:10:11;;;;;;;11.48;10.50;;;27.40;74.80;;;;;;5085303;28;20040;-59
2023/02/28 06:12:39;;;;;;;11.60;10.50;;;27.40;74.80;;;;;;5085178;28;20040;-63
2023/02/28 06:15:12;;;;;;;12.10;10.52;;;27.40;74.70;;;;;;5085209;28;20032;-59
2023/02/28 06:17:38;;;;;;;10.68;9.70;;;27.40;74.30;;;;;;5085144;28;20042;-59
2023/02/28 06:20:06;;;;;;;11.77;10.57;;;27.40;73.80;;;;;;5085166;28;20078;-63
2023/02/28 06:22:33;;;;;;;11.20;10.02;;;27.50;73.80;;;;;;5085286;28;20051;-58
2023/02/28 06:24:59;;;;;;;11.40;10.43;;;27.50;73.40;;;;;;5085086;28;20063;-61
2023/02/28 06:27:26;;;;;;;11.18;10.25;;;27.50;73.30;;;;;;5085238;28;20035;-64
2023/02/28 06:29:55;;;;;;;11.20;10.02;;;27.50;73.50;;;;;;5085522;28;20033;-59
2023/02/28 06:32:22;;;;;;;12.13;10.93;;;27.50;73.40;;;;;;5084867;28;20295;-60
2023/02/28 06:34:50;;;;;;;12.20;10.90;;;27.50;73.60;;;;;;5085424;28;20028;-54
2023/02/28 06:37:17;;;;;;;11.20;10.20;;;27.50;73.60;;;;;;5085014;28;20016;-59
2023/02/28 06:39:44;;;;;;;11.90;10.57;;;27.50;73.90;;;;;;5085237;28;20078;-61
2023/02/28 06:42:11;;;;;;;11.27;10.18;;;27.50;74.00;;;;;;5084902;28;20032;-61
2023/02/28 06:44:39;;;;;;;11.80;10.70;;;27.40;74.10;;;;;;5085345;28;20074;-61
2023/02/28 06:47:06;;;;;;;11.30;10.20;;;27.40;74.20;;;;;;5084656;28;20028;-61
2023/02/28 06:49:36;;;;;;;12.02;10.27;;;27.40;74.70;;;;;;5084733;28;20178;-63
2023/02/28 06:52:03;;;;;;;12.10;11.00;;;27.40;74.20;;;;;;5084523;28;20037;-59
2023/02/28 06:54:29;;;;;;;11.88;10.77;;;27.40;74.10;;;;;;5084868;28;20058;-63
2023/02/28 06:56:58;;;;;;;11.45;10.35;;;27.40;74.30;;;;;;5084450;28;20028;-59
2023/02/28 06:59:25;;;;;;;11.52;10.25;;;27.40;74.30;;;;;;5084884;28;20127;-59
2023/02/28 07:01:51;;;;;;;12.15;11.05;;;27.40;74.50;;;;;;5084246;28;20028;-55
2023/02/28 07:04:18;;;;;;;12.00;10.88;;;27.40;74.30;;;;;;5084981;28;20122;-58
2023/02/28 07:06:44;;;;;;;12.15;10.95;;;27.30;74.30;;;;;;5084393;28;20070;-57
2023/02/28 07:09:11;;;;;;;11.25;10.10;;;27.30;74.10;;;;;;5084460;28;20028;-59
2023/02/28 07:11:38;;;;;;;11.65;10.65;;;27.40;74.00;;;;;;5084178;28;20102;-59
2023/02/28 07:14:04;;;;;;;11.52;10.52;;;27.40;74.00;;;;;;5084604;28;20070;-61
2023/02/28 07:16:31;;;;;;;12.15;11.05;;;27.30;73.90;;;;;;5083945;28;20083;-56
2023/02/28 07:18:57;;;;;;;11.40;10.30;;;27.40;73.90;;;;;;5084467;28;20020;-55
2023/02/28 07:21:24;;;;;;;11.65;10.55;;;27.40;74.10;;;;;;5084159;28;20051;-53
2023/02/28 07:23:51;;;;;;;12.07;10.85;;;27.40;74.10;;;;;;5084156;28;20035;-59
2023/02/28 07:26:19;;;;;;;11.57;10.48;;;27.40;73.90;;;;;;5083959;28;20077;-59
2023/02/28 07:28:48;;;;;;;11.38;10.27;;;27.40;73.80;;;;;;5084438;28;20182;-59
2023/02/28 07:31:16;;;;;;;11.38;10.40;;;27.40;73.60;;;;;;5083805;28;20044;-61
2023/02/28 07:33:43;;;;;;;15.15;10.82;;;27.40;73.00;;;;;;5084052;28;20366;-55
2023/02/28 07:36:17;;;;;;;11.75;10.65;;;27.40;73.10;;;;;;5084089;28;20209;-54
2023/02/28 07:38:49;;;;;;;12.27;10.90;;;27.40;73.00;;;;;;5084198;28;20197;-60
2023/02/28 07:41:17;;;;;;;11.23;10.15;;;27.30;73.20;;;;;;5083703;28;20028;-61
2023/02/28 07:43:45;;;;;;;12.80;10.55;;;27.40;73.50;;;;;;5083955;28;20035;-61
2023/02/28 07:46:14;;;;;;;11.45;10.40;;;27.30;73.70;;;;;;5083926;28;20216;-58
2023/02/28 07:48:42;;;;;;;11.27;10.13;;;27.30;74.00;;;;;;5084015;28;20099;-61
2023/02/28 07:51:08;;;;;;;12.10;11.02;;;27.30;74.00;;;;;;5083684;28;20052;-58
2023/02/28 07:53:35;;;;;;;12.00;10.77;;;27.30;74.00;;;;;;5084120;28;20058;-59
2023/02/28 07:56:03;;;;;;;11.48;10.48;;;27.20;74.30;;;;;;5083814;28;20040;-62
2023/02/28 07:58:30;;;;;;;11.88;10.77;;;27.20;74.60;;;;;;5083724;28;20021;-62
2023/02/28 08:01:05;;;;;;;12.45;11.20;;;27.10;74.70;;;;;;5083942;28;20028;-59
2023/02/28 08:03:31;;;;;;;11.60;10.60;;;27.10;75.00;;;;;;5083765;28;20050;-60
2023/02/28 08:05:58;;;;;;;12.60;11.15;;;27.10;75.30;;;;;;5083527;28;20021;-60
2023/02/28 08:08:29;;;;;;;16.00;11.45;;;27.10;75.20;;;;;;5083757;28;20028;-63
2023/02/28 08:10:55;;;;;;;12.27;11.05;;;27.10;75.50;;;;;;5083269;28;20079;-59
2023/02/28 08:13:22;;;;;;;12.50;11.05;;;27.00;75.70;;;;;;5083660;28;20024;-59
2023/02/28 08:15:48;;;;;;;12.38;11.15;;;27.00;75.90;;;;;;5083838;28;20063;-59
2023/02/28 08:18:15;;;;;;;12.45;11.27;;;26.90;76.20;;;;;;5083783;28;20020;-60
2023/02/28 08:20:41;;;;;;;12.20;11.10;;;26.90;76.30;;;;;;5083257;28;20359;-59
2023/02/28 08:23:08;;;;;;;11.98;10.77;;;26.90;76.30;;;;;;5083605;28;20029;-61
2023/02/28 08:25:34;;;;;;;13.15;11.32;;;26.90;76.50;;;;;;5083561;28;20320;-59
2023/02/28 08:28:01;;;;;;;11.70;10.70;;;26.90;76.20;;;;;;5083311;28;20037;-59
2023/02/28 08:30:27;;;;;;;12.07;10.88;;;26.90;75.90;;;;;;5086665;28;20089;-61
2023/02/28 08:32:55;;;;;;;11.95;10.75;;;26.90;75.60;;;;;;5087296;28;20036;-61
2023/02/28 08:35:21;;;;;;;11.52;10.48;;;26.90;75.40;;;;;;5087118;28;20029;-59
2023/02/28 08:37:49;;;;;;;12.48;11.27;;;26.90;75.00;;;;;;5087306;28;20280;-62
2023/02/28 08:40:18;;;;;;;11.93;10.45;;;26.90;74.80;;;;;;5087240;28;20028;-63
2023/02/28 08:42:45;;;;;;;12.10;11.00;;;26.90;74.50;;;;;;5086979;28;20194;-59
2023/02/28 08:45:14;;;;;;;12.10;10.70;;;26.90;74.40;;;;;;5087072;28;20029;-59
2023/02/28 08:47:41;;;;;;;12.90;10.73;;;26.90;74.30;;;;;;5087042;28;20029;-61
2023/02/28 08:50:08;;;;;;;13.75;10.45;;;26.90;74.30;;;;;;5086821;28;20336;-66
2023/02/28 08:52:34;;;;;;;11.45;10.40;;;26.90;74.30;;;;;;5087095;28;20052;-61
2023/02/28 08:55:01;;;;;;;11.50;10.23;;;26.90;74.10;;;;;;5086649;28;20033;-59
2023/02/28 08:57:28;;;;;;;12.13;10.40;;;26.90;74.20;;;;;;5086726;28;20016;-61
2023/02/28 08:59:54;;;;;;;11.35;10.25;;;27.00;74.00;;;;;;5086824;28;20032;-59
2023/02/28 09:02:21;;;;;;;11.40;10.20;;;26.90;73.90;;;;;;5086820;28;20092;-59
2023/02/28 09:04:47;;;;;;;12.05;10.45;;;27.00;73.90;;;;;;5086936;28;20284;-59
2023/02/28 09:07:14;;;;;;;11.52;10.38;;;27.00;74.00;;;;;;5086677;28;20316;-59
2023/02/28 09:09:53;;;;;;;14.45;10.93;;;27.00;74.00;;;;;;5087016;28;20029;-60
2023/02/28 09:12:26;;;;;;;11.80;10.65;;;26.90;74.10;;;;;;5086600;28;20087;-58
2023/02/28 09:14:53;;;;;;;13.55;10.63;;;26.90;74.00;;;;;;5086932;28;20029;-58
2023/02/28 09:17:20;;;;;;;11.40;10.10;;;26.90;74.00;;;;;;5086564;28;20048;-60
2023/02/28 09:19:49;;;;;;;11.02;9.88;;;26.90;74.20;;;;;;5086151;28;20035;-58
2023/02/28 09:22:16;;;;;;;11.25;10.15;;;26.90;74.30;;;;;;5086539;28;20028;-50
2023/02/28 09:24:44;;;;;;;11.80;10.60;;;26.90;74.10;;;;;;5086723;28;20032;-58
2023/02/28 09:27:11;;;;;;;11.75;10.65;;;26.90;74.20;;;;;;5086283;28;20044;-62
2023/02/28 09:29:38;;;;;;;11.45;10.43;;;26.90;74.30;;;;;;5086812;28;20078;-58
2023/02/28 09:32:05;;;;;;;11.40;10.35;;;26.90;74.50;;;;;;5085969;28;20036;-58
2023/02/28 09:34:32;;;;;;;12.13;10.32;;;26.90;74.50;;;;;;5086610;28;20024;-56
2023/02/28 09:36:58;;;;;;;11.65;10.38;;;27.00;74.50;;;;;;5086419;28;20033;-55
2023/02/28 09:39:26;;;;;;;12.10;11.00;;;26.90;74.60;;;;;;5086556;28;20200;-58
2023/02/28 09:41:54;;;;;;;12.60;11.27;;;26.90;74.70;;;;;;5086026;28;20371;-59
2023/02/28 09:44:24;;;;;;;13.80;10.68;;;26.90;74.80;;;;;;5086362;28;20095;-60
2023/02/28 09:46:56;;;;;;;14.75;11.00;;;26.90;74.80;;;;;;5085916;28;20096;-58
2023/02/28 09:49:28;;;;;;;14.48;11.13;;;26.90;75.00;;;;;;5086261;28;20032;-59
2023/02/28 09:52:13;;;;;;;14.38;10.88;;;26.90;74.80;;;;;;5085792;28;20028;-59
2023/02/28 09:54:40;;;;;;;13.10;10.90;;;26.90;75.10;;;;;;5086169;28;20024;-61
2023/02/28 09:57:15;;;;;;;12.25;10.52;;;26.90;75.20;;;;;;5085902;28;20055;-61
2023/02/28 09:59:54;;;;;;;17.30;10.88;;;26.90;75.40;;;;;;5086039;28;20138;-59
2023/02/28 10:02:47;;;;;;;12.80;10.82;;;26.90;75.40;;;;;;5085599;28;20021;-59
2023/02/28 10:05:20;;;;;;;14.52;11.27;;;26.90;75.20;;;;;;5062477;28;20076;-60
2023/02/28 10:07:55;;;;;;;13.60;11.35;;;26.90;75.30;;;;;;5083081;28;20021;-59
2023/02/28 10:10:43;;;;;;;13.57;11.48;;;26.90;75.50;;;;;;5085380;28;20043;-59
2023/02/28 10:13:39;;;;;;;16.60;11.00;;;26.90;75.50;;;;;;5085451;28;20039;-58
2023/02/28 10:16:19;;;;;;;12.88;11.13;;;26.90;75.90;;;;;;5068639;28;20033;-61
2023/02/28 10:19:08;;;;;;;17.40;11.48;;;26.80;76.10;;;;;;5085575;28;20024;-61
2023/02/28 10:21:40;;;;;;;15.52;11.10;;;26.80;75.90;;;;;;5084014;28;20336;-58
2023/02/28 10:24:29;;;;;;;21.30;12.80;;;26.90;75.80;;;;;;5084994;28;20087;-61
2023/02/28 10:27:04;;;;;;;23.13;12.65;;;26.90;75.70;;;;;;5079361;28;20099;-59
2023/02/28 10:29:34;;;;;;;19.88;12.68;;;26.90;75.70;;;;;;5085489;28;20297;-60
2023/02/28 10:32:02;;;;;;;16.92;11.35;;;26.90;75.80;;;;;;5084896;28;20068;-65
2023/02/28 10:34:29;;;;;;;17.13;12.45;;;26.90;75.90;;;;;;5085193;28;20024;-59
2023/02/28 10:37:06;;;;;;;14.90;11.65;;;26.80;76.00;;;;;;5085001;28;20036;-59
2023/02/28 10:39:48;;;;;;;14.82;11.80;;;26.80;76.30;;;;;;5085136;28;20020;-62
2023/02/28 10:42:29;;;;;;;14.65;12.30;;;26.80;76.30;;;;;;5084869;28;20043;-60
2023/02/28 10:45:17;;;;;;;18.52;11.70;;;26.80;76.50;;;;;;5084012;28;20036;-59
2023/02/28 10:47:49;;;;;;;19.80;12.20;;;26.80;76.90;;;;;;5084547;28;20047;-60
2023/02/28 10:50:40;;;;;;;22.40;13.43;;;26.80;77.10;;;;;;5084946;28;20037;-59
2023/02/28 10:53:31;;;;;;;17.45;13.50;;;26.70;76.90;;;;;;5084092;28;20032;-58
2023/02/28 10:56:06;;;;;;;24.07;19.00;;;26.80;77.10;;;;;;5075283;28;20043;-58
2023/02/28 10:59:02;;;;;;;24.60;17.80;;;26.80;77.20;;;;;;5085330;28;20196;-60
2023/02/28 11:01:43;;;;;;;29.42;17.33;;;26.80;77.50;;;;;;5077230;28;20028;-59
2023/02/28 11:04:29;;;;;;;29.60;16.23;;;26.80;77.80;;;;;;5084772;28;20116;-60
2023/02/28 11:07:22;;;;;;;20.65;15.38;;;26.70;77.70;;;;;;5084444;28;20382;-59
2023/02/28 11:09:53;;;;;;;30.85;15.73;;;26.80;78.30;;;;;;5084496;28;20305;-58
2023/02/28 11:12:25;;;;;;;31.38;15.63;;;26.80;77.80;;;;;;5076384;28;20029;-56
2023/02/28 11:14:56;;;;;;;34.15;15.00;;;26.80;77.80;;;;;;5076783;28;20035;-58
2023/02/28 11:17:25;;;;;;;27.00;15.23;;;26.80;77.70;;;;;;5069313;28;20037;-60
2023/02/28 11:19:56;;;;;;;30.45;14.07;;;26.80;77.70;;;;;;5081877;28;20036;-62
2023/02/28 11:22:30;;;;;;;27.30;15.07;;;26.80;77.30;;;;;;5081028;28;20054;-59
2023/02/28 11:25:02;;;;;;;23.23;13.60;;;26.80;77.20;;;;;;5083620;28;20098;-60
2023/02/28 11:27:33;;;;;;;58.30;15.70;;;26.80;76.90;;;;;;5079389;28;20036;-58
2023/02/28 11:30:01;;;;;;;64.57;17.00;;;26.80;77.20;;;;;;5079449;28;20066;-58
2023/02/28 11:32:30;;;;;;;44.53;15.40;;;26.80;77.40;;;;;;5081944;28;20017;-60
2023/02/28 11:35:04;;;;;;;44.65;16.13;;;26.80;77.10;;;;;;5080367;28;20317;-60
2023/02/28 11:37:33;;;;;;;66.00;17.70;;;26.80;77.50;;;;;;5082594;28;20028;-59
2023/02/28 11:39:59;;;;;;;37.17;16.27;;;26.80;77.70;;;;;;5085618;28;20055;-56
2023/02/28 11:42:30;;;;;;;37.83;14.35;;;26.80;77.70;;;;;;5084045;28;20028;-57
2023/02/28 11:45:26;;;;;;;30.73;14.07;;;26.80;77.80;;;;;;5083687;28;20037;-55
2023/02/28 11:48:14;;;;;;;35.88;19.42;;;26.80;78.30;;;;;;5083785;28;20024;-56
2023/02/28 11:50:52;;;;;;;49.90;32.42;;;26.80;78.30;;;;;;5083691;28;20338;-56
2023/02/28 11:53:38;;;;;;;57.67;43.35;;;26.80;78.70;;;;;;5083679;28;20040;-53
2023/02/28 11:56:23;;;;;;;55.67;39.70;;;26.70;79.30;;;;;;5083800;28;20029;-59
2023/02/28 11:58:55;;;;;;;58.97;38.72;;;26.70;79.40;;;;;;5084053;28;20025;-55
2023/02/28 12:01:28;;;;;;;62.42;36.75;;;26.70;79.70;;;;;;5083710;28;20036;-57
2023/02/28 12:04:22;;;;;;;51.92;33.78;;;26.70;79.70;;;;;;5084682;28;20032;-52
2023/02/28 12:07:20;;;;;;;67.38;35.15;;;26.70;79.90;;;;;;5087881;28;20382;-53
2023/02/28 12:09:52;;;;;;;56.63;29.73;;;26.70;80.00;;;;;;5088142;28;20056;-54
2023/02/28 12:12:40;;;;;;;44.55;27.70;;;26.70;79.90;;;;;;5087631;28;20047;-55
2023/02/28 12:15:30;;;;;;;43.00;25.48;;;26.70;80.00;;;;;;5087786;28;20040;-52
2023/02/28 12:18:38;;;;;;;42.92;23.88;;;26.70;79.80;;;;;;5087728;28;20036;-55
2023/02/28 12:21:27;;;;;;;36.38;21.67;;;26.70;79.90;;;;;;5087428;28;20102;-55
2023/02/28 12:24:20;;;;;;;35.25;22.55;;;26.70;80.30;;;;;;5087473;28;20029;-55
2023/02/28 12:26:49;;;;;;;36.20;21.17;;;26.70;80.90;;;;;;5087540;28;20028;-56
2023/02/28 12:29:29;;;;;;;29.05;19.30;;;26.70;80.80;;;;;;5087888;28;20028;-56
2023/02/28 12:32:21;;;;;;;23.80;16.95;;;26.70;81.00;;;;;;5087237;28;20037;-58
2023/02/28 12:35:32;;;;;;;22.02;16.33;;;26.70;80.80;;;;;;5087261;28;20066;-59
2023/02/28 12:38:17;;;;;;;20.38;15.45;;;26.70;81.20;;;;;;5062224;28;20032;-56
2023/02/28 12:40:48;;;;;;;22.25;15.45;;;26.70;81.10;;;;;;5087027;28;20021;-54
2023/02/28 12:43:18;;;;;;;17.75;14.45;;;26.70;81.50;;;;;;5087311;28;20028;-57
2023/02/28 12:45:45;;;;;;;25.23;15.50;;;26.70;81.50;;;;;;5087070;28;20103;-53
2023/02/28 12:48:20;;;;;;;20.55;15.73;;;26.70;82.00;;;;;;5087106;28;20048;-59
2023/02/28 12:50:48;;;;;;;25.10;15.63;;;26.70;83.10;;;;;;5086907;28;20032;-49
2023/02/28 12:53:26;;;;;;;21.60;14.60;;;26.70;83.50;;;;;;5086884;28;20092;-56
2023/02/28 12:56:14;;;;;;;20.45;14.60;;;26.70;83.50;;;;;;5086796;28;20040;-56